createdAt,value
2022-08-04T00:01:33.325Z,8.23
2022-08-04T00:04:49.897Z,8.25
2022-08-04T00:08:15.202Z,8.48
2022-08-04T00:11:22.413Z,8.10
2022-08-04T00:14:24.834Z,8.23
2022-08-04T00:17:32.759Z,8.13
2022-08-04T00:20:39.095Z,9.18
2022-08-04T00:24:11.905Z,8.88
2022-08-04T00:27:07.824Z,9.43
2022-08-04T00:30:10.585Z,9.27
2022-08-04T00:33:18.453Z,8.15
2022-08-04T00:36:21.400Z,9.00
2022-08-04T00:39:23.826Z,9.40
2022-08-04T00:42:58.363Z,9.05
2022-08-04T00:46:34.204Z,8.93
2022-08-04T00:50:21.578Z,9.98
2022-08-04T00:53:49.987Z,10.20
2022-08-04T00:57:33.992Z,10.10
2022-08-04T01:00:54.709Z,9.30
2022-08-04T01:04:22.415Z,8.57
2022-08-04T01:07:49.676Z,10.50
2022-08-04T01:11:12.775Z,10.32
2022-08-04T01:14:47.006Z,9.50
2022-08-04T01:18:08.292Z,9.93
2022-08-04T01:21:44.936Z,9.95
2022-08-04T01:25:08.663Z,8.63
2022-08-04T01:28:38.919Z,9.18
2022-08-04T01:32:07.276Z,9.65
2022-08-04T01:35:22.315Z,9.65
2022-08-04T01:38:40.997Z,8.43
2022-08-04T01:41:43.395Z,9.40
2022-08-04T01:45:04.131Z,9.48
2022-08-04T01:48:07.885Z,9.63
2022-08-04T01:51:10.708Z,9.18
2022-08-04T01:54:15.917Z,9.65
2022-08-04T01:57:38.030Z,10.00
2022-08-04T02:00:56.593Z,9.70
2022-08-04T02:04:20.675Z,9.00
2022-08-04T02:07:46.792Z,10.00
2022-08-04T02:11:05.346Z,10.23
2022-08-04T02:14:43.107Z,9.70
2022-08-04T02:18:02.960Z,9.90
2022-08-04T02:21:05.584Z,9.55
2022-08-04T02:24:11.449Z,9.23
2022-08-04T02:27:15.083Z,10.18
2022-08-04T02:30:19.226Z,9.90
2022-08-04T02:33:30.193Z,9.63
2022-08-04T02:36:41.389Z,9.40
2022-08-04T02:39:48.995Z,10.32
2022-08-04T02:42:53.677Z,10.18
2022-08-04T02:45:57.519Z,9.68
2022-08-04T02:49:03.125Z,9.40
2022-08-04T02:52:09.231Z,10.48
2022-08-04T02:55:13.717Z,11.75
2022-08-04T02:58:19.512Z,9.88
2022-08-04T03:01:22.723Z,10.13
2022-08-04T03:04:51.270Z,10.75
2022-08-04T03:08:12.171Z,10.77
2022-08-04T03:11:34.862Z,11.10
2022-08-04T03:15:13.639Z,10.38
2022-08-04T03:18:51.082Z,11.10
2022-08-04T03:22:12.020Z,10.75
2022-08-04T03:25:25.994Z,11.10
2022-08-04T03:28:51.627Z,10.65
2022-08-04T03:32:10.193Z,10.98
2022-08-04T03:35:22.678Z,11.07
2022-08-04T03:39:16.696Z,11.18
2022-08-04T03:42:47.966Z,10.95
2022-08-04T03:45:49.833Z,11.85
2022-08-04T03:49:22.407Z,10.98
2022-08-04T03:53:11.085Z,11.27
2022-08-04T03:56:39.177Z,11.68
2022-08-04T04:00:15.367Z,11.55
2022-08-04T04:03:44.698Z,12.07
2022-08-04T04:07:35.700Z,11.63
2022-08-04T04:11:06.697Z,11.32
2022-08-04T04:14:20.910Z,18.17
2022-08-04T04:17:37.802Z,13.13
2022-08-04T04:20:59.007Z,13.05
2022-08-04T04:24:16.083Z,16.65
2022-08-04T04:27:39.967Z,16.30
2022-08-04T04:31:02.422Z,13.02
2022-08-04T04:34:16.306Z,12.25
2022-08-04T04:37:33.401Z,12.63
2022-08-04T04:41:04.207Z,12.68
2022-08-04T04:44:17.982Z,11.85
2022-08-04T04:48:08.229Z,12.30
2022-08-04T04:51:51.924Z,11.27
2022-08-04T04:54:59.957Z,11.05
2022-08-04T04:58:02.629Z,11.32
2022-08-04T05:01:26.226Z,10.27
2022-08-04T05:04:42.562Z,10.43
2022-08-04T05:08:45.317Z,9.82
2022-08-04T05:11:45.860Z,9.63
2022-08-04T05:14:51.803Z,10.00
2022-08-04T05:17:57.261Z,10.43
2022-08-04T05:21:09.486Z,9.32
2022-08-04T05:24:15.348Z,9.65
2022-08-04T05:27:40.276Z,9.45
2022-08-04T05:30:50.274Z,9.88
2022-08-04T05:34:05.690Z,9.10
2022-08-04T05:37:15.992Z,9.43
2022-08-04T05:40:19.823Z,8.88
2022-08-04T05:43:23.908Z,9.63
2022-08-04T05:46:27.801Z,9.13
2022-08-04T05:49:30.244Z,9.80
2022-08-04T05:52:32.970Z,9.52
2022-08-04T05:55:56.783Z,9.52
2022-08-04T05:58:58.362Z,9.20
2022-08-04T06:02:02.349Z,9.13
2022-08-04T06:05:07.807Z,8.40
2022-08-04T06:08:13.432Z,9.30
2022-08-04T06:11:17.061Z,8.95
2022-08-04T06:14:24.111Z,11.27
2022-08-04T06:19:56.791Z,8.20
2022-08-04T06:21:21.221Z,7.60
2022-08-04T06:24:29.417Z,8.50
2022-08-04T06:27:33.716Z,7.72
2022-08-04T06:30:37.283Z,7.70
2022-08-04T06:33:54.313Z,8.88
2022-08-04T06:36:58.493Z,7.70
2022-08-04T06:40:29.256Z,7.43
2022-08-04T06:43:26.878Z,7.10
2022-08-04T06:46:34.242Z,7.90
2022-08-04T06:49:55.215Z,8.60
2022-08-04T06:53:00.920Z,7.38
2022-08-04T06:56:03.890Z,6.90
2022-08-04T06:59:06.493Z,6.75
2022-08-04T07:02:17.013Z,7.10
2022-08-04T07:05:20.705Z,7.88
2022-08-04T07:08:22.990Z,6.97
2022-08-04T07:11:26.339Z,7.57
2022-08-04T07:14:28.885Z,6.60
2022-08-04T07:17:34.615Z,6.75
2022-08-04T07:20:44.279Z,6.60
2022-08-04T07:23:46.617Z,7.60
2022-08-04T07:26:50.791Z,7.50
2022-08-04T07:29:53.743Z,7.47
2022-08-04T07:32:56.739Z,7.55
2022-08-04T07:36:05.986Z,6.85
2022-08-04T07:39:27.651Z,7.32
2022-08-04T07:42:31.928Z,6.80
2022-08-04T07:45:34.364Z,6.63
2022-08-04T07:48:36.626Z,6.82
2022-08-04T07:51:40.316Z,7.00
2022-08-04T07:54:42.890Z,7.20
2022-08-04T07:57:45.105Z,7.07
2022-08-04T08:00:47.755Z,7.40
2022-08-04T08:03:50.875Z,6.57
2022-08-04T08:06:53.163Z,7.15
2022-08-04T08:09:55.141Z,6.95
2022-08-04T08:12:57.625Z,7.15
2022-08-04T08:16:00.908Z,6.80
2022-08-04T08:19:03.367Z,7.22
2022-08-04T08:22:10.765Z,7.18
2022-08-04T08:25:13.029Z,7.55
2022-08-04T08:28:16.664Z,7.18
2022-08-04T08:31:18.763Z,6.60
2022-08-04T08:34:27.500Z,6.05
2022-08-04T08:37:33.859Z,7.13
2022-08-04T08:40:55.863Z,6.05
2022-08-04T08:44:07.667Z,5.97
2022-08-04T08:47:58.466Z,24.17
2022-08-04T08:51:19.991Z,19.67
2022-08-04T08:54:34.079Z,5.88
2022-08-04T08:58:00.160Z,6.47
2022-08-04T09:01:34.594Z,4.85
2022-08-04T09:04:51.865Z,6.03
2022-08-04T09:08:11.650Z,5.30
2022-08-04T09:11:18.876Z,4.60
2022-08-04T09:14:28.836Z,4.15
2022-08-04T09:17:40.825Z,4.93
2022-08-04T09:20:50.371Z,5.60
2022-08-04T09:24:00.622Z,4.82
2022-08-04T09:27:08.238Z,4.50
2022-08-04T09:30:12.327Z,5.18
2022-08-04T09:33:44.460Z,4.82
2022-08-04T09:36:56.681Z,5.43
2022-08-04T09:40:31.590Z,7.13
2022-08-04T09:44:49.943Z,5.65
2022-08-04T09:48:07.387Z,5.40
2022-08-04T09:51:24.232Z,5.50
2022-08-04T09:55:04.658Z,4.60
2022-08-04T09:58:22.847Z,5.32
2022-08-04T10:01:27.298Z,5.18
2022-08-04T10:04:32.232Z,5.18
2022-08-04T10:07:59.542Z,4.95
2022-08-04T10:11:54.488Z,5.25
2022-08-04T10:15:16.995Z,5.30
2022-08-04T10:18:50.979Z,5.97
2022-08-04T10:22:29.454Z,5.20
2022-08-04T10:26:08.538Z,5.15
2022-08-04T10:29:37.091Z,5.35
2022-08-04T10:32:44.779Z,5.57
2022-08-04T10:35:55.488Z,5.70
2022-08-04T10:39:07.416Z,5.10
2022-08-04T10:42:25.307Z,5.38
2022-08-04T10:45:58.045Z,5.28
2022-08-04T10:49:04.886Z,5.28
2022-08-04T10:52:34.099Z,6.15
2022-08-04T10:56:06.696Z,5.32
2022-08-04T10:59:21.461Z,5.47
2022-08-04T11:02:33.389Z,5.18
2022-08-04T11:06:03.675Z,5.90
2022-08-04T11:09:06.974Z,5.15
2022-08-04T11:12:21.738Z,5.68
2022-08-04T11:15:48.434Z,5.40
2022-08-04T11:19:04.699Z,5.53
2022-08-04T11:22:14.284Z,5.57
2022-08-04T11:25:40.838Z,5.82
2022-08-04T11:29:16.031Z,6.22
2022-08-04T11:32:24.863Z,6.05
2022-08-04T11:35:53.453Z,6.18
2022-08-04T11:39:12.771Z,6.88
2022-08-04T11:42:28.160Z,6.85
2022-08-04T11:45:53.736Z,7.68
2022-08-04T11:49:05.729Z,7.10
2022-08-04T11:52:10.557Z,6.75
2022-08-04T11:55:16.301Z,6.63
2022-08-04T11:58:20.792Z,6.72
2022-08-04T12:01:50.966Z,6.40
2022-08-04T12:04:58.103Z,6.60
2022-08-04T12:08:00.175Z,6.85
2022-08-04T12:11:28.497Z,6.65
2022-08-04T12:14:54.783Z,6.45
2022-08-04T12:18:19.069Z,6.80
2022-08-04T12:21:53.221Z,6.90
2022-08-04T12:25:29.476Z,5.90
2022-08-04T12:29:08.070Z,6.15
2022-08-04T12:32:32.521Z,7.35
2022-08-04T12:35:58.075Z,7.00
2022-08-04T12:39:27.194Z,6.45
2022-08-04T12:42:56.120Z,6.30
2022-08-04T12:46:05.552Z,5.93
2022-08-04T12:49:08.918Z,5.95
2022-08-04T12:52:14.960Z,6.35
2022-08-04T12:55:19.647Z,6.93
2022-08-04T12:58:43.443Z,6.70
2022-08-04T13:02:08.545Z,6.65
2022-08-04T13:05:17.197Z,6.47
2022-08-04T13:08:21.412Z,6.95
2022-08-04T13:11:24.708Z,6.97
2022-08-04T13:14:35.154Z,6.88
2022-08-04T13:17:52.928Z,7.28
2022-08-04T13:21:20.797Z,6.82
2022-08-04T13:24:32.254Z,6.78
2022-08-04T13:27:43.154Z,6.72
2022-08-04T13:30:48.126Z,6.80
2022-08-04T13:33:54.666Z,7.25
2022-08-04T13:36:57.895Z,7.53
2022-08-04T13:40:02.139Z,7.03
2022-08-04T13:43:06.478Z,7.47
2022-08-04T13:47:01.412Z,6.97
2022-08-04T13:50:18.010Z,9.48
2022-08-04T13:53:22.049Z,10.13
2022-08-04T13:56:29.114Z,14.90
2022-08-04T13:59:36.987Z,8.07
2022-08-04T14:02:59.035Z,8.63
2022-08-04T14:06:11.821Z,8.13
2022-08-04T14:09:17.654Z,11.80
2022-08-04T14:12:38.456Z,7.43
2022-08-04T14:16:02.702Z,8.88
2022-08-04T14:19:05.891Z,7.40
2022-08-04T14:22:27.420Z,7.20
2022-08-04T14:25:35.717Z,9.43
2022-08-04T14:29:25.475Z,13.18
2022-08-04T14:32:12.660Z,6.47
2022-08-04T14:35:38.377Z,9.55
2022-08-04T14:39:00.493Z,6.75
2022-08-04T14:42:03.109Z,6.75
2022-08-04T14:45:05.570Z,7.38
2022-08-04T14:48:12.707Z,6.30
2022-08-04T14:51:15.166Z,5.85
2022-08-04T14:54:18.702Z,6.78
2022-08-04T14:57:21.290Z,17.88
2022-08-04T15:00:30.138Z,8.48
2022-08-04T15:03:33.115Z,6.25
2022-08-04T15:06:36.502Z,6.10
2022-08-04T15:09:38.717Z,6.38
2022-08-04T15:12:41.011Z,6.20
2022-08-04T15:15:43.629Z,6.70
2022-08-04T15:19:07.736Z,6.55
2022-08-04T15:22:17.627Z,6.65
2022-08-04T15:25:20.190Z,6.15
2022-08-04T15:28:25.241Z,9.70
2022-08-04T15:32:05.838Z,9.00
2022-08-04T15:34:52.543Z,6.32
2022-08-04T15:37:57.418Z,6.00
2022-08-04T15:41:10.605Z,6.35
2022-08-04T15:44:48.831Z,6.28
2022-08-04T15:48:16.750Z,6.78
2022-08-04T15:51:30.476Z,6.57
2022-08-04T15:54:36.750Z,6.53
2022-08-04T15:58:09.502Z,6.25
2022-08-04T16:01:15.570Z,6.20
2022-08-04T16:04:22.979Z,6.25
2022-08-04T16:07:54.389Z,6.82
2022-08-04T16:10:56.606Z,6.30
2022-08-04T16:14:01.702Z,6.90
2022-08-04T16:17:18.132Z,6.43
2022-08-04T16:20:22.403Z,6.93
2022-08-04T16:23:54.413Z,7.07
2022-08-04T16:27:00.568Z,7.07
2022-08-04T16:30:13.558Z,7.22
2022-08-04T16:33:16.217Z,6.90
2022-08-04T16:36:56.705Z,6.20
2022-08-04T16:40:44.374Z,7.07
2022-08-04T16:43:46.599Z,10.32
2022-08-04T16:47:08.456Z,7.28
2022-08-04T16:50:10.895Z,6.30
2022-08-04T16:53:52.213Z,9.18
2022-08-04T16:56:35.968Z,8.63
2022-08-04T16:59:38.329Z,6.90
2022-08-04T17:02:40.623Z,6.00
2022-08-04T17:05:43.245Z,6.22
2022-08-04T17:08:48.992Z,7.07
2022-08-04T17:11:52.479Z,7.28
2022-08-04T17:14:54.643Z,6.65
2022-08-04T17:18:18.755Z,8.05
2022-08-04T17:21:30.444Z,6.63
2022-08-04T17:24:35.031Z,6.68
2022-08-04T17:28:19.080Z,7.13
2022-08-04T17:30:59.839Z,6.63
2022-08-04T17:34:19.619Z,6.10
2022-08-04T17:37:39.170Z,6.10
2022-08-04T17:40:51.921Z,6.13
2022-08-04T17:44:03.083Z,6.03
2022-08-04T17:47:16.694Z,6.50
2022-08-04T17:50:30.198Z,6.75
2022-08-04T17:54:01.833Z,6.90
2022-08-04T17:57:14.008Z,6.40
2022-08-04T18:00:19.482Z,7.55
2022-08-04T18:03:29.947Z,6.93
2022-08-04T18:06:32.374Z,7.40
2022-08-04T18:09:57.695Z,7.18
2022-08-04T18:13:14.149Z,8.25
2022-08-04T18:16:22.976Z,6.72
2022-08-04T18:19:25.890Z,8.20
2022-08-04T18:22:34.393Z,13.50
2022-08-04T18:25:50.461Z,9.63
2022-08-04T18:28:54.172Z,8.75
2022-08-04T18:31:56.664Z,7.82
2022-08-04T18:35:05.130Z,7.35
2022-08-04T18:38:22.809Z,7.43
2022-08-04T18:41:27.574Z,7.32
2022-08-04T18:44:52.659Z,7.15
2022-08-04T18:47:58.828Z,8.73
2022-08-04T18:51:23.064Z,8.65
2022-08-04T18:54:27.667Z,8.88
2022-08-04T18:57:32.282Z,8.45
2022-08-04T19:00:53.308Z,7.10
2022-08-04T19:04:00.092Z,7.15
2022-08-04T19:07:26.614Z,7.25
2022-08-04T19:10:26.731Z,8.02
2022-08-04T19:13:34.873Z,8.20
2022-08-04T19:16:40.728Z,8.13
2022-08-04T19:19:47.668Z,7.28
2022-08-04T19:24:29.584Z,6.22
2022-08-04T19:26:23.775Z,7.03
2022-08-04T19:29:37.666Z,7.60
2022-08-04T19:32:46.084Z,7.35
2022-08-04T19:35:51.007Z,7.40
2022-08-04T19:38:53.587Z,7.10
2022-08-04T19:42:04.382Z,6.60
2022-08-04T19:45:07.636Z,6.13
2022-08-04T19:48:16.687Z,6.28
2022-08-04T19:51:21.750Z,6.35
2022-08-04T19:54:27.360Z,6.03
2022-08-04T19:57:32.378Z,6.20
2022-08-04T20:00:58.309Z,5.95
2022-08-04T20:04:10.408Z,5.82
2022-08-04T20:07:23.795Z,6.47
2022-08-04T20:10:26.181Z,6.50
2022-08-04T20:13:37.279Z,5.88
2022-08-04T20:16:40.750Z,6.38
2022-08-04T20:19:51.342Z,6.45
2022-08-04T20:22:53.847Z,6.10
2022-08-04T20:26:14.188Z,6.45
2022-08-04T20:29:37.056Z,5.90
2022-08-04T20:32:41.906Z,6.35
2022-08-04T20:36:06.759Z,6.15
2022-08-04T20:39:10.931Z,6.47
2022-08-04T20:42:17.722Z,6.35
2022-08-04T20:45:55.683Z,6.60
2022-08-04T20:48:51.447Z,5.80
2022-08-04T20:51:56.456Z,6.50
2022-08-04T20:54:59.298Z,6.22
2022-08-04T20:58:03.374Z,6.38
2022-08-04T21:01:23.024Z,6.68
2022-08-04T21:04:34.578Z,6.75
2022-08-04T21:07:41.683Z,7.43
2022-08-04T21:10:47.468Z,7.15
2022-08-04T21:13:56.032Z,6.93
2022-08-04T21:16:59.688Z,6.68
2022-08-04T21:20:02.191Z,6.80
2022-08-04T21:23:05.197Z,6.75
2022-08-04T21:26:25.892Z,6.82
2022-08-04T21:29:34.541Z,7.78
2022-08-04T21:32:37.413Z,7.55
2022-08-04T21:35:40.006Z,7.63
2022-08-04T21:38:51.071Z,7.10
2022-08-04T21:42:27.811Z,7.32
2022-08-04T21:45:16.527Z,7.57
2022-08-04T21:48:21.481Z,7.60
2022-08-04T21:51:59.400Z,7.68
2022-08-04T21:54:48.213Z,7.90
2022-08-04T21:57:56.369Z,8.10
2022-08-04T22:01:00.937Z,7.90
2022-08-04T22:04:14.523Z,7.95
2022-08-04T22:07:16.935Z,8.18
2022-08-04T22:10:32.199Z,8.20
2022-08-04T22:13:52.512Z,8.00
2022-08-04T22:20:27.189Z,7.32
2022-08-04T22:23:30.862Z,7.32
2022-08-04T22:26:47.482Z,7.50
2022-08-04T22:29:49.682Z,7.68
2022-08-04T22:32:52.409Z,7.70
2022-08-04T22:35:54.330Z,7.80
2022-08-04T22:39:04.530Z,7.82
2022-08-04T22:42:09.040Z,7.40
2022-08-04T22:45:15.706Z,7.70
2022-08-04T22:48:18.081Z,7.63
2022-08-04T22:51:21.342Z,7.57
2022-08-04T22:54:26.063Z,7.78
2022-08-04T22:57:43.013Z,7.18
2022-08-04T23:00:54.107Z,7.75
2022-08-04T23:04:00.428Z,7.07
2022-08-04T23:07:09.069Z,7.03
2022-08-04T23:10:11.984Z,7.38
2022-08-04T23:13:14.651Z,7.53
2022-08-04T23:16:18.955Z,7.45
2022-08-04T23:19:21.656Z,7.30
2022-08-04T23:22:37.175Z,7.60
2022-08-04T23:26:07.859Z,7.43
2022-08-04T23:29:07.974Z,8.00
2022-08-04T23:32:09.886Z,7.25
2022-08-04T23:35:12.047Z,7.60
2022-08-04T23:38:31.209Z,7.50
2022-08-04T23:41:55.255Z,7.68
2022-08-04T23:44:57.223Z,7.25
2022-08-04T23:48:15.516Z,7.50
2022-08-04T23:51:21.144Z,8.00
2022-08-04T23:54:25.947Z,7.22
2022-08-04T23:57:31.204Z,7.40
